Geyserville, CA

3:52 PM PDT on September 19, 2014 (GMT -0700)
Ukiah Municipal | Change Station
CLOSE
Current Station
Airport
Location: Ukiah,
Elevation: 614 ft
Nearby Weather Stations

Elev 614 ft 39.13 °N, 123.20 °W | Updated 56 minutes ago

Clear
Clear
91 °F
Feels Like 91 °F
N
8
Wind Variable Wind from North

Today
High -- | Low -- °F
--% Chance of Precip.
Yesterday
High -- | Low -- °F
Precip. -- in
6:56 AM 7:13 PM
Waning Crescent, 16% visible
Pressure 29.80 in
Visibility 10.0 miles
Clouds Clear
Dew Point 48 °F
Humidity 23%
Rainfall 0.00 in
Snow Depth 1 in , 0 in , 0 in
UV 6 out of 12
Pollen 5.90 out of 12
Air Quality Not available.
Flu Activity Not available.
METAR KUKI 192156Z AUTO 01007KT 10SM CLR 33/09 A2982 RMK AO2 SLP091 T03280089

More Conditions Fewer Conditions

Pressure 29.80 in
Visibility 10.0 miles
Clouds Clear
Dew Point 48 °F
Humidity 23%
Rainfall 0.00 in
Snow Depth 1 in , 0 in , 0 in
UV 6 out of 12
Pollen 5.90 out of 12
Air Quality Not available.
Flu Activity Not available.
METAR KUKI 192156Z AUTO 01007KT 10SM CLR 33/09 A2982 RMK AO2 SLP091 T03280089

More Conditions Fewer Conditions

10-Day Weather Forecast

Almanac

Astronomy

Sep. 19, 2014 Rise Set
Actual Time 6:56 AM PDT 7:13 PM PDT
Civil Twilight 6:30 AM PDT 7:39 PM PDT
Nautical Twilight 5:58 AM PDT 8:10 PM PDT
Astronomical Twilight 5:27 AM PDT 8:42 PM PDT
Moon 2:49 AM PDT 4:43 PM PDT
Length of Visible Light 13h 09m
Length of Day
12h 16m
Tomorrow will be 2m 30s shorter.
Waning Crescent, 16% of the Moon is Illuminated
Today
Waning Crescent
Sep 24
New
Oct 1
First Quarter
Oct 8
Full
Oct 15
Last Quarter

Today's Extremes

State Highs State Lows

Community

WunderPhotos

Upload Photos

1,754,722 photos uploaded!

WunderBlogs® & News

By Dr. Jeff Masters
Director of Meteorology, Weather Underground
By Kari Strenfel
Meteorologist, Weather Underground
By Christopher C. Burt
Weather Historian, Weather Underground
September 19, 2014
September 19, 2014
September 19, 2014

Nearby

Air Quality

  Air Quality AQ Index Pollutant
Friday Good
PM2.5
Saturday Moderate
PM2.5
Sunday Moderate
PM2.5
Monday Moderate
PM2.5
Tuesday Moderate
PM2.5
Wednesday Moderate
PM2.5

Snow Depth

Station Depth Elevation
Leavitt Meadows 0 in 7200 ft
Adin Mountain 1 in 6200 ft
Burnside Lake 0 in 8139 ft
Summit Meadow 0 in 9122 ft
CSS Lab 1 in 6900 ft

Earthquake Activity

City Distance Mag. Time & Date
Livermore, California 94 miles 2.6 3:37 AM PDT
2014-09-19
The Geysers, California 9 miles 2.5 11:29 PM PDT
2014-09-17
Cobb, California 10 miles 2.7 1:23 PM PDT
2014-09-16
Minimum magnitude displayed is 2.5.

Coastal Water Temperatures

Place Temperature
Point Reyes, CA 66.0 °F
Arena Cove, CA 62.1 °F
San Francisco, CA 66.0 °F
Richmond, CA 66.9 °F

Nearby Weather Stations